Time;durP1;ratioP1;P1;durP2;ratioP2;P2;SDS_P1;SDS_P2;PMS_P1;PMS_P2;Temp;Humidity;BMP_temperature;BMP_pressure;BME280_temperature;BME280_humidity;BME280_pressure;Samples;Min_cycle;Max_cycle;Signal;HPM_P1;HPM_P2
2021/03/23 11:40:53;;;;;;;43.78;41.75;;;;;;;;;;5090927;28;20548;-76
2021/03/23 11:43:22;;;;;;;47.80;45.58;;;;;;;;;;5089584;28;20640;-75
2021/03/23 11:45:51;;;;;;;49.28;46.85;;;;;;;;;;5090867;28;20190;-75
2021/03/23 11:48:19;;;;;;;51.38;48.90;;;;;;;;;;5090780;28;20171;-75
2021/03/23 11:50:47;;;;;;;46.83;44.72;;;;;;;;;;5089492;28;20221;-74
2021/03/23 11:53:13;;;;;;;47.42;45.00;;;;;;;;;;5090649;28;20625;-77
2021/03/23 11:55:43;;;;;;;48.40;46.03;;;;;;;;;;5090670;28;20164;-77
2021/03/23 11:58:09;;;;;;;46.78;44.65;;;;;;;;;;5089296;28;20199;-81
2021/03/23 12:00:36;;;;;;;48.28;46.10;;;;;;;;;;5090470;28;20203;-79
2021/03/23 12:03:03;;;;;;;49.13;46.78;;;;;;;;;;5090512;28;20199;-79
2021/03/23 12:05:30;;;;;;;47.80;45.38;;;;;;;;;;5090401;28;20678;-80
2021/03/23 12:08:15;;;;;;;46.53;44.22;;;;;;;;;;5089097;28;20172;-81
2021/03/23 12:11:02;;;;;;;44.67;42.58;;;;;;;;;;5090349;28;20254;-82
2021/03/23 12:13:34;;;;;;;45.20;43.15;;;;;;;;;;5088817;28;20276;-81
2021/03/23 12:16:00;;;;;;;52.90;49.55;;;;;;;;;;5090233;28;20172;-81
2021/03/23 12:18:26;;;;;;;49.50;47.10;;;;;;;;;;5090099;28;20296;-81
2021/03/23 12:21:00;;;;;;;50.28;47.67;;;;;;;;;;5088903;28;20180;-80
2021/03/23 12:23:26;;;;;;;50.72;48.30;;;;;;;;;;5088845;28;20177;-81
2021/03/23 12:25:53;;;;;;;54.70;51.83;;;;;;;;;;5090022;28;20164;-81
2021/03/23 12:28:19;;;;;;;52.55;49.80;;;;;;;;;;5090058;28;20520;-81
2021/03/23 12:30:45;;;;;;;58.25;54.83;;;;;;;;;;5089895;28;20172;-82
2021/03/23 12:33:11;;;;;;;55.83;53.13;;;;;;;;;;5088721;28;20176;-81
2021/03/23 12:35:37;;;;;;;54.40;51.65;;;;;;;;;;5089891;28;20164;-78
2021/03/23 12:38:05;;;;;;;51.63;49.40;;;;;;;;;;5089851;28;20322;-76
2021/03/23 12:40:31;;;;;;;56.10;52.20;;;;;;;;;;5089558;28;20224;-78
2021/03/23 12:42:58;;;;;;;54.70;52.15;;;;;;;;;;5089791;28;20164;-77
2021/03/23 12:45:29;;;;;;;51.40;48.85;;;;;;;;;;5089696;28;20172;-75
2021/03/23 12:47:56;;;;;;;51.88;49.42;;;;;;;;;;5089665;28;20168;-75
2021/03/23 12:50:22;;;;;;;55.45;52.03;;;;;;;;;;5086300;28;20180;-75
2021/03/23 12:52:50;;;;;;;56.15;53.50;;;;;;;;;;5076072;28;20638;-75
2021/03/23 12:55:17;;;;;;;55.13;52.58;;;;;;;;;;5075998;28;20222;-75
2021/03/23 12:57:43;;;;;;;56.33;53.78;;;;;;;;;;5075995;28;20650;-75
2021/03/23 13:00:11;;;;;;;57.53;54.72;;;;;;;;;;5075844;28;20550;-75
2021/03/23 13:02:37;;;;;;;60.17;57.25;;;;;;;;;;5075904;28;20219;-75
2021/03/23 13:05:03;;;;;;;58.97;56.08;;;;;;;;;;5075845;28;20649;-75
2021/03/23 13:07:33;;;;;;;62.50;59.13;;;;;;;;;;5075866;28;20203;-75
2021/03/23 13:09:59;;;;;;;63.08;60.10;;;;;;;;;;5075794;28;20171;-75
2021/03/23 13:12:26;;;;;;;64.00;61.08;;;;;;;;;;5075660;28;20173;-75
2021/03/23 13:14:52;;;;;;;63.83;60.38;;;;;;;;;;5075631;28;20195;-75
2021/03/23 13:17:23;;;;;;;61.65;58.65;;;;;;;;;;5075577;28;20218;-76
2021/03/23 13:19:50;;;;;;;64.32;60.63;;;;;;;;;;5075461;28;20198;-75
2021/03/23 13:22:17;;;;;;;60.60;56.65;;;;;;;;;;5075580;28;20164;-76
2021/03/23 13:24:43;;;;;;;65.35;61.97;;;;;;;;;;5075440;28;20695;-76
2021/03/23 13:27:16;;;;;;;61.35;58.38;;;;;;;;;;5075520;28;20172;-76
2021/03/23 13:29:42;;;;;;;59.92;57.10;;;;;;;;;;5075430;28;20177;-75
2021/03/23 13:32:08;;;;;;;60.20;57.30;;;;;;;;;;5075445;28;20172;-76
2021/03/23 13:34:34;;;;;;;61.58;58.38;;;;;;;;;;5075624;28;20165;-76
2021/03/23 13:37:02;;;;;;;58.60;55.88;;;;;;;;;;5075299;28;20584;-85
2021/03/23 13:39:39;;;;;;;59.88;56.85;;;;;;;;;;5073679;28;20716;-89
2021/03/23 13:42:14;;;;;;;58.80;55.97;;;;;;;;;;5075214;28;20696;-87
2021/03/23 13:44:45;;;;;;;58.67;55.85;;;;;;;;;;5075136;28;20164;-87
2021/03/23 13:47:11;;;;;;;62.22;59.28;;;;;;;;;;5075121;28;20210;-87
2021/03/23 13:49:37;;;;;;;63.33;60.25;;;;;;;;;;5073797;28;20184;-82
2021/03/23 13:52:04;;;;;;;64.55;61.33;;;;;;;;;;5073671;28;20221;-83
2021/03/23 13:54:31;;;;;;;59.60;56.92;;;;;;;;;;5074933;28;20502;-83
2021/03/23 13:56:58;;;;;;;58.78;55.80;;;;;;;;;;5074940;28;20168;-82
2021/03/23 13:59:24;;;;;;;60.38;57.40;;;;;;;;;;5073419;28;20196;-82
2021/03/23 14:01:51;;;;;;;62.47;59.28;;;;;;;;;;5073096;28;20222;-83
2021/03/23 14:04:18;;;;;;;59.75;56.90;;;;;;;;;;5072851;28;20175;-82
2021/03/23 14:06:45;;;;;;;58.78;56.00;;;;;;;;;;5074716;28;20171;-82
2021/03/23 14:09:29;;;;;;;61.03;57.58;;;;;;;;;;5073330;28;20314;-84
2021/03/23 14:11:57;;;;;;;56.67;53.95;;;;;;;;;;5073435;28;20172;-79
2021/03/23 14:14:23;;;;;;;59.50;56.65;;;;;;;;;;5074416;28;20184;-80
2021/03/23 14:16:49;;;;;;;54.65;52.13;;;;;;;;;;5073171;28;20177;-83
2021/03/23 14:19:15;;;;;;;54.65;52.05;;;;;;;;;;5073030;28;20207;-81
2021/03/23 14:21:41;;;;;;;59.05;56.05;;;;;;;;;;5073076;28;20225;-80
2021/03/23 14:24:09;;;;;;;53.17;50.70;;;;;;;;;;5074338;28;20524;-82
2021/03/23 14:26:35;;;;;;;53.17;50.40;;;;;;;;;;5074230;28;20169;-82
2021/03/23 14:29:01;;;;;;;63.38;59.88;;;;;;;;;;5072972;28;20187;-79
2021/03/23 14:31:27;;;;;;;56.75;54.15;;;;;;;;;;5072819;28;20618;-79
2021/03/23 14:33:53;;;;;;;58.45;55.58;;;;;;;;;;5074172;28;20167;-78
2021/03/23 14:36:24;;;;;;;58.20;55.50;;;;;;;;;;5074058;28;20169;-80
2021/03/23 14:38:50;;;;;;;56.38;53.60;;;;;;;;;;5072564;28;20224;-79
2021/03/23 14:41:18;;;;;;;58.55;55.03;;;;;;;;;;5074009;28;20169;-79
2021/03/23 14:43:44;;;;;;;59.40;56.05;;;;;;;;;;5073882;28;20239;-79
2021/03/23 14:46:16;;;;;;;55.33;52.78;;;;;;;;;;5073867;28;20168;-79
2021/03/23 14:48:42;;;;;;;56.50;53.78;;;;;;;;;;5073865;28;20179;-78
2021/03/23 14:51:08;;;;;;;55.05;52.47;;;;;;;;;;5073854;28;20172;-79
2021/03/23 14:53:41;;;;;;;57.83;55.08;;;;;;;;;;5072496;28;20286;-79
2021/03/23 14:56:07;;;;;;;56.55;53.55;;;;;;;;;;5073989;28;20570;-78
2021/03/23 14:58:34;;;;;;;55.50;52.00;;;;;;;;;;5073602;28;20172;-78
2021/03/23 15:01:00;;;;;;;55.20;52.70;;;;;;;;;;5073635;28;20160;-78
2021/03/23 15:03:26;;;;;;;55.42;52.90;;;;;;;;;;5073605;28;20172;-78
2021/03/23 15:05:53;;;;;;;57.45;54.17;;;;;;;;;;5073610;28;20203;-79
2021/03/23 15:08:20;;;;;;;56.58;54.03;;;;;;;;;;5073579;28;20164;-78
2021/03/23 15:10:51;;;;;;;55.53;52.90;;;;;;;;;;5073516;28;20525;-78
2021/03/23 15:13:20;;;;;;;54.35;51.55;;;;;;;;;;5073193;28;20192;-82
2021/03/23 15:15:46;;;;;;;56.72;53.45;;;;;;;;;;5073466;28;20207;-80
2021/03/23 15:33:30;;;;;;;44.13;41.63;;;;;;;;;;5090946;27;20880;-76
2021/03/23 15:35:56;;;;;;;48.78;46.38;;;;;;;;;;5090859;28;20180;-75
2021/03/23 15:38:26;;;;;;;51.70;49.20;;;;;;;;;;5089486;28;20270;-76
2021/03/23 15:40:52;;;;;;;52.72;50.05;;;;;;;;;;5090860;28;20221;-77
2021/03/23 15:43:20;;;;;;;53.42;50.30;;;;;;;;;;5089438;28;20590;-77
2021/03/23 15:45:46;;;;;;;50.15;47.85;;;;;;;;;;5090732;28;20168;-79
2021/03/23 15:48:12;;;;;;;49.97;46.80;;;;;;;;;;5090595;28;20164;-78
2021/03/23 16:33:41;;;;;;;47.08;44.83;;;;;;;;;;5090841;27;21130;-75
2021/03/23 16:36:07;;;;;;;50.15;47.83;;;;;;;;;;5089509;28;20183;-77
2021/03/23 16:38:33;;;;;;;50.25;47.95;;;;;;;;;;5090737;28;20206;-77
2021/03/23 16:40:59;;;;;;;54.30;51.67;;;;;;;;;;5089528;28;20526;-78
2021/03/23 16:43:27;;;;;;;53.00;50.55;;;;;;;;;;5090779;28;20198;-78
